sensor_id;sensor_type;location;lat;lon;timestamp;pressure;altitude;pressure_sealevel;temperature;humidity
71107;BME280;58763;47.982;11.516;2023-03-15T00:00:18;93424.97;;;2.32;86.56
71107;BME280;58763;47.982;11.516;2023-03-15T00:02:43;93423.19;;;2.37;86.36
71107;BME280;58763;47.982;11.516;2023-03-15T00:05:12;93421.34;;;2.43;86.24
71107;BME280;58763;47.982;11.516;2023-03-15T00:07:38;93416.59;;;2.50;85.78
71107;BME280;58763;47.982;11.516;2023-03-15T00:10:03;93418.44;;;2.44;86.14
71107;BME280;58763;47.982;11.516;2023-03-15T00:12:29;93423.78;;;2.44;85.67
71107;BME280;58763;47.982;11.516;2023-03-15T00:15:03;93418.72;;;2.48;85.04
71107;BME280;58763;47.982;11.516;2023-03-15T00:17:28;93413.06;;;2.39;84.76
71107;BME280;58763;47.982;11.516;2023-03-15T00:19:54;93413.59;;;2.41;84.77
71107;BME280;58763;47.982;11.516;2023-03-15T00:22:19;93405.59;;;2.41;85.02
71107;BME280;58763;47.982;11.516;2023-03-15T00:24:47;93401.41;;;2.50;84.53
71107;BME280;58763;47.982;11.516;2023-03-15T00:27:12;93426.69;;;2.43;84.70
71107;BME280;58763;47.982;11.516;2023-03-15T00:29:38;93415.84;;;2.54;85.04
71107;BME280;58763;47.982;11.516;2023-03-15T00:32:03;93418.66;;;2.43;85.35
71107;BME280;58763;47.982;11.516;2023-03-15T00:34:31;93419.75;;;2.42;85.32
71107;BME280;58763;47.982;11.516;2023-03-15T00:36:58;93407.22;;;2.16;86.55
71107;BME280;58763;47.982;11.516;2023-03-15T00:39:23;93408.31;;;2.15;87.54
71107;BME280;58763;47.982;11.516;2023-03-15T00:41:50;93396.34;;;2.22;87.09
71107;BME280;58763;47.982;11.516;2023-03-15T00:44:16;93404.78;;;2.41;86.47
71107;BME280;58763;47.982;11.516;2023-03-15T00:46:42;93400.03;;;2.48;86.65
71107;BME280;58763;47.982;11.516;2023-03-15T00:49:07;93400.63;;;2.55;85.57
71107;BME280;58763;47.982;11.516;2023-03-15T00:51:33;93392.06;;;2.53;85.84
71107;BME280;58763;47.982;11.516;2023-03-15T00:53:59;93397.53;;;2.68;85.58
71107;BME280;58763;47.982;11.516;2023-03-15T00:56:26;93390.59;;;2.67;85.67
71107;BME280;58763;47.982;11.516;2023-03-15T00:58:51;93395.47;;;2.75;85.25
71107;BME280;58763;47.982;11.516;2023-03-15T01:01:25;93394.72;;;2.90;84.34
71107;BME280;58763;47.982;11.516;2023-03-15T01:03:52;93406.41;;;2.78;84.45
71107;BME280;58763;47.982;11.516;2023-03-15T01:06:20;93404.09;;;2.92;84.26
71107;BME280;58763;47.982;11.516;2023-03-15T01:08:46;93416.63;;;2.87;84.15
71107;BME280;58763;47.982;11.516;2023-03-15T01:11:18;93486.56;;;2.57;86.56
71107;BME280;58763;47.982;11.516;2023-03-15T01:13:45;93495.16;;;2.32;85.76
71107;BME280;58763;47.982;11.516;2023-03-15T01:16:12;93496.25;;;1.66;86.80
71107;BME280;58763;47.982;11.516;2023-03-15T01:18:38;93498.84;;;1.61;87.35
71107;BME280;58763;47.982;11.516;2023-03-15T01:21:09;93507.16;;;1.43;88.20
71107;BME280;58763;47.982;11.516;2023-03-15T01:23:34;93490.56;;;1.19;89.40
71107;BME280;58763;47.982;11.516;2023-03-15T01:26:02;93487.88;;;1.14;89.99
71107;BME280;58763;47.982;11.516;2023-03-15T01:28:28;93488.38;;;0.95;90.92
71107;BME280;58763;47.982;11.516;2023-03-15T01:30:54;93491.13;;;0.83;91.63
71107;BME280;58763;47.982;11.516;2023-03-15T01:33:19;93479.44;;;0.67;91.72
71107;BME280;58763;47.982;11.516;2023-03-15T01:35:45;93465.06;;;0.68;92.01
71107;BME280;58763;47.982;11.516;2023-03-15T01:38:11;93458.75;;;0.91;90.70
71107;BME280;58763;47.982;11.516;2023-03-15T01:40:44;93475.16;;;0.83;90.80
71107;BME280;58763;47.982;11.516;2023-03-15T01:43:18;93474.75;;;0.75;91.52
71107;BME280;58763;47.982;11.516;2023-03-15T01:48:20;93462.72;;;0.89;91.17
71107;BME280;58763;47.982;11.516;2023-03-15T01:50:48;93481.41;;;0.94;91.08
71107;BME280;58763;47.982;11.516;2023-03-15T01:53:14;93486.16;;;1.08;90.43
71107;BME280;58763;47.982;11.516;2023-03-15T01:55:40;93479.47;;;1.06;89.62
71107;BME280;58763;47.982;11.516;2023-03-15T01:58:05;93489.81;;;0.86;90.43
71107;BME280;58763;47.982;11.516;2023-03-15T02:00:33;93505.47;;;0.82;90.25
71107;BME280;58763;47.982;11.516;2023-03-15T02:03:03;93516.44;;;0.69;90.99
71107;BME280;58763;47.982;11.516;2023-03-15T02:05:40;93508.44;;;0.69;91.32
71107;BME280;58763;47.982;11.516;2023-03-15T02:08:11;93509.66;;;0.61;90.98
71107;BME280;58763;47.982;11.516;2023-03-15T02:10:43;93505.31;;;0.55;92.08
71107;BME280;58763;47.982;11.516;2023-03-15T02:13:12;93516.66;;;0.51;92.69
71107;BME280;58763;47.982;11.516;2023-03-15T02:15:39;93525.44;;;0.51;92.43
71107;BME280;58763;47.982;11.516;2023-03-15T02:18:13;93525.31;;;0.58;92.88
71107;BME280;58763;47.982;11.516;2023-03-15T02:20:52;93526.41;;;0.45;93.49
71107;BME280;58763;47.982;11.516;2023-03-15T02:23:22;93530.59;;;0.41;93.70
71107;BME280;58763;47.982;11.516;2023-03-15T02:28:26;93543.78;;;0.36;94.66
71107;BME280;58763;47.982;11.516;2023-03-15T02:30:52;93547.13;;;0.43;94.30
71107;BME280;58763;47.982;11.516;2023-03-15T02:33:31;93556.22;;;0.47;94.13
71107;BME280;58763;47.982;11.516;2023-03-15T02:36:17;93561.06;;;0.50;94.41
71107;BME280;58763;47.982;11.516;2023-03-15T02:38:44;93555.09;;;0.43;94.54
71107;BME280;58763;47.982;11.516;2023-03-15T02:41:10;93558.00;;;0.42;94.33
71107;BME280;58763;47.982;11.516;2023-03-15T02:43:35;93559.19;;;0.34;95.18
71107;BME280;58763;47.982;11.516;2023-03-15T02:46:01;93575.03;;;0.29;95.74
71107;BME280;58763;47.982;11.516;2023-03-15T02:48:28;93572.94;;;0.31;96.05
71107;BME280;58763;47.982;11.516;2023-03-15T02:50:56;93582.66;;;0.37;95.55
71107;BME280;58763;47.982;11.516;2023-03-15T02:53:21;93589.72;;;0.32;95.28
71107;BME280;58763;47.982;11.516;2023-03-15T02:55:46;93594.31;;;0.36;95.69
71107;BME280;58763;47.982;11.516;2023-03-15T02:58:12;93600.66;;;0.35;94.82
71107;BME280;58763;47.982;11.516;2023-03-15T03:00:37;93606.47;;;0.32;94.84
71107;BME280;58763;47.982;11.516;2023-03-15T03:03:03;93618.16;;;0.31;94.79
71107;BME280;58763;47.982;11.516;2023-03-15T03:05:29;93619.69;;;0.27;95.11
71107;BME280;58763;47.982;11.516;2023-03-15T03:07:54;93635.19;;;0.19;96.18
71107;BME280;58763;47.982;11.516;2023-03-15T03:10:20;93637.19;;;0.12;96.43
71107;BME280;58763;47.982;11.516;2023-03-15T03:12:46;93660.88;;;0.13;96.42
71107;BME280;58763;47.982;11.516;2023-03-15T03:15:12;93655.56;;;0.02;96.32
71107;BME280;58763;47.982;11.516;2023-03-15T03:17:37;93677.41;;;-0.08;95.41
71107;BME280;58763;47.982;11.516;2023-03-15T03:20:05;93675.22;;;-0.11;95.93
71107;BME280;58763;47.982;11.516;2023-03-15T03:22:35;93681.72;;;-0.07;95.62
71107;BME280;58763;47.982;11.516;2023-03-15T03:25:00;93690.81;;;-0.03;94.61
71107;BME280;58763;47.982;11.516;2023-03-15T03:27:26;93705.63;;;-0.07;93.93
71107;BME280;58763;47.982;11.516;2023-03-15T03:29:52;93708.94;;;-0.23;94.10
71107;BME280;58763;47.982;11.516;2023-03-15T03:32:17;93725.94;;;-0.24;93.87
71107;BME280;58763;47.982;11.516;2023-03-15T03:34:43;93743.41;;;-0.28;93.16
71107;BME280;58763;47.982;11.516;2023-03-15T03:37:17;93746.63;;;-0.38;94.18
71107;BME280;58763;47.982;11.516;2023-03-15T03:39:42;93747.63;;;-0.39;94.55
71107;BME280;58763;47.982;11.516;2023-03-15T03:42:08;93766.00;;;-0.37;95.45
71107;BME280;58763;47.982;11.516;2023-03-15T03:44:33;93766.47;;;-0.40;95.15
71107;BME280;58763;47.982;11.516;2023-03-15T03:46:59;93778.22;;;-0.48;95.64
71107;BME280;58763;47.982;11.516;2023-03-15T03:49:24;93792.78;;;-0.50;95.70
71107;BME280;58763;47.982;11.516;2023-03-15T03:51:50;93794.50;;;-0.44;95.61
71107;BME280;58763;47.982;11.516;2023-03-15T03:54:15;93805.19;;;-0.33;94.97
71107;BME280;58763;47.982;11.516;2023-03-15T03:56:40;93824.56;;;-0.32;95.23
71107;BME280;58763;47.982;11.516;2023-03-15T03:59:06;93823.28;;;-0.41;94.28
71107;BME280;58763;47.982;11.516;2023-03-15T04:01:31;93820.44;;;-0.58;93.78
71107;BME280;58763;47.982;11.516;2023-03-15T04:03:57;93837.88;;;-0.62;93.13
71107;BME280;58763;47.982;11.516;2023-03-15T04:06:23;93840.41;;;-0.67;93.49
71107;BME280;58763;47.982;11.516;2023-03-15T04:08:48;93850.34;;;-0.62;93.68
71107;BME280;58763;47.982;11.516;2023-03-15T04:11:14;93856.47;;;-0.62;93.01
71107;BME280;58763;47.982;11.516;2023-03-15T04:13:42;93847.81;;;-0.57;93.10
71107;BME280;58763;47.982;11.516;2023-03-15T04:16:09;93862.25;;;-0.53;93.21
71107;BME280;58763;47.982;11.516;2023-03-15T04:18:34;93867.66;;;-0.60;93.38
71107;BME280;58763;47.982;11.516;2023-03-15T04:21:00;93864.44;;;-0.62;93.30
71107;BME280;58763;47.982;11.516;2023-03-15T04:23:25;93878.19;;;-0.53;93.27
71107;BME280;58763;47.982;11.516;2023-03-15T04:25:51;93873.16;;;-0.43;93.78
71107;BME280;58763;47.982;11.516;2023-03-15T04:28:19;93882.44;;;-0.64;93.80
71107;BME280;58763;47.982;11.516;2023-03-15T04:30:47;93880.13;;;-0.60;94.02
71107;BME280;58763;47.982;11.516;2023-03-15T04:33:13;93881.19;;;-0.61;93.71
71107;BME280;58763;47.982;11.516;2023-03-15T04:35:38;93899.44;;;-0.53;92.32
71107;BME280;58763;47.982;11.516;2023-03-15T04:38:07;93910.94;;;-0.41;91.47
71107;BME280;58763;47.982;11.516;2023-03-15T04:40:33;93912.50;;;-0.52;91.09
71107;BME280;58763;47.982;11.516;2023-03-15T04:43:03;93914.34;;;-0.52;91.35
71107;BME280;58763;47.982;11.516;2023-03-15T04:45:29;93938.16;;;-0.46;91.06
71107;BME280;58763;47.982;11.516;2023-03-15T04:47:56;93926.50;;;-0.45;91.12
71107;BME280;58763;47.982;11.516;2023-03-15T04:50:23;93923.56;;;-0.55;90.83
71107;BME280;58763;47.982;11.516;2023-03-15T04:52:49;93929.25;;;-0.70;91.09
71107;BME280;58763;47.982;11.516;2023-03-15T04:55:15;93945.00;;;-0.68;91.22
71107;BME280;58763;47.982;11.516;2023-03-15T04:57:41;93948.56;;;-0.62;91.04
71107;BME280;58763;47.982;11.516;2023-03-15T05:00:08;93948.50;;;-0.56;90.72
71107;BME280;58763;47.982;11.516;2023-03-15T05:02:34;93954.28;;;-0.59;90.27
71107;BME280;58763;47.982;11.516;2023-03-15T05:05:05;93961.84;;;-0.62;90.11
71107;BME280;58763;47.982;11.516;2023-03-15T05:07:32;93969.31;;;-0.71;90.92
71107;BME280;58763;47.982;11.516;2023-03-15T05:09:58;93965.56;;;-0.63;90.39
71107;BME280;58763;47.982;11.516;2023-03-15T05:12:23;93974.97;;;-0.68;91.16
71107;BME280;58763;47.982;11.516;2023-03-15T05:14:49;93986.94;;;-0.58;90.09
71107;BME280;58763;47.982;11.516;2023-03-15T05:17:14;93997.69;;;-0.53;90.18
71107;BME280;58763;47.982;11.516;2023-03-15T05:19:40;93992.81;;;-0.75;90.07
71107;BME280;58763;47.982;11.516;2023-03-15T05:22:07;93986.41;;;-0.67;90.44
71107;BME280;58763;47.982;11.516;2023-03-15T05:24:32;93995.34;;;-0.61;89.88
71107;BME280;58763;47.982;11.516;2023-03-15T05:26:58;93998.44;;;-0.64;90.15
71107;BME280;58763;47.982;11.516;2023-03-15T05:29:23;94004.25;;;-0.74;89.75
71107;BME280;58763;47.982;11.516;2023-03-15T05:31:49;94009.41;;;-0.79;90.25
71107;BME280;58763;47.982;11.516;2023-03-15T05:34:19;94017.34;;;-0.73;90.55
71107;BME280;58763;47.982;11.516;2023-03-15T05:36:49;94021.94;;;-0.86;91.08
71107;BME280;58763;47.982;11.516;2023-03-15T05:39:18;94024.91;;;-0.76;91.03
71107;BME280;58763;47.982;11.516;2023-03-15T05:41:47;94032.94;;;-0.83;91.27
71107;BME280;58763;47.982;11.516;2023-03-15T05:44:12;94034.69;;;-0.95;91.34
71107;BME280;58763;47.982;11.516;2023-03-15T05:46:37;94044.56;;;-1.02;91.97
71107;BME280;58763;47.982;11.516;2023-03-15T05:49:03;94040.44;;;-0.98;92.26
71107;BME280;58763;47.982;11.516;2023-03-15T05:51:28;94058.81;;;-0.96;91.65
71107;BME280;58763;47.982;11.516;2023-03-15T05:53:54;94063.72;;;-1.00;91.76
71107;BME280;58763;47.982;11.516;2023-03-15T05:56:19;94067.28;;;-1.06;92.06
71107;BME280;58763;47.982;11.516;2023-03-15T05:58:44;94063.78;;;-1.06;91.57
71107;BME280;58763;47.982;11.516;2023-03-15T06:01:10;94085.84;;;-1.06;91.46
71107;BME280;58763;47.982;11.516;2023-03-15T06:03:35;94079.28;;;-1.03;91.39
71107;BME280;58763;47.982;11.516;2023-03-15T06:06:01;94077.88;;;-1.06;91.44
71107;BME280;58763;47.982;11.516;2023-03-15T06:08:27;94084.38;;;-1.02;91.13
71107;BME280;58763;47.982;11.516;2023-03-15T06:10:53;94084.03;;;-1.12;91.00
71107;BME280;58763;47.982;11.516;2023-03-15T06:13:18;94085.94;;;-1.19;90.92
71107;BME280;58763;47.982;11.516;2023-03-15T06:15:45;94099.00;;;-1.17;91.22
71107;BME280;58763;47.982;11.516;2023-03-15T06:18:11;94099.03;;;-0.99;90.88
71107;BME280;58763;47.982;11.516;2023-03-15T06:20:38;94107.28;;;-0.83;90.14
71107;BME280;58763;47.982;11.516;2023-03-15T06:23:04;94112.72;;;-0.96;90.56
71107;BME280;58763;47.982;11.516;2023-03-15T06:25:30;94099.91;;;-0.81;90.12
71107;BME280;58763;47.982;11.516;2023-03-15T06:27:55;94110.59;;;-0.87;89.40
71107;BME280;58763;47.982;11.516;2023-03-15T06:30:21;94119.38;;;-0.87;88.83
71107;BME280;58763;47.982;11.516;2023-03-15T06:32:46;94123.66;;;-0.68;88.78
71107;BME280;58763;47.982;11.516;2023-03-15T06:35:12;94122.47;;;-0.72;88.10
71107;BME280;58763;47.982;11.516;2023-03-15T06:37:37;94122.31;;;-0.77;87.45
71107;BME280;58763;47.982;11.516;2023-03-15T06:40:07;94124.41;;;-0.60;87.22
71107;BME280;58763;47.982;11.516;2023-03-15T06:42:34;94131.88;;;-0.51;86.35
71107;BME280;58763;47.982;11.516;2023-03-15T06:45:00;94132.59;;;-0.62;86.41
71107;BME280;58763;47.982;11.516;2023-03-15T06:47:26;94133.63;;;-0.63;86.26
71107;BME280;58763;47.982;11.516;2023-03-15T06:49:51;94136.66;;;-0.78;86.74
71107;BME280;58763;47.982;11.516;2023-03-15T06:52:17;94130.44;;;-0.72;86.94
71107;BME280;58763;47.982;11.516;2023-03-15T06:54:43;94133.69;;;-0.70;86.93
71107;BME280;58763;47.982;11.516;2023-03-15T06:57:09;94139.50;;;-0.54;86.39
71107;BME280;58763;47.982;11.516;2023-03-15T06:59:34;94133.94;;;-0.53;86.32
71107;BME280;58763;47.982;11.516;2023-03-15T07:01:59;94137.19;;;-0.51;86.14
71107;BME280;58763;47.982;11.516;2023-03-15T07:04:25;94138.31;;;-0.58;86.26
71107;BME280;58763;47.982;11.516;2023-03-15T07:06:50;94140.75;;;-0.57;86.32
71107;BME280;58763;47.982;11.516;2023-03-15T07:09:16;94143.31;;;-0.50;86.09
71107;BME280;58763;47.982;11.516;2023-03-15T07:11:41;94148.56;;;-0.44;86.10
71107;BME280;58763;47.982;11.516;2023-03-15T07:14:07;94143.72;;;-0.29;85.98
71107;BME280;58763;47.982;11.516;2023-03-15T07:16:32;94153.69;;;-0.24;85.73
71107;BME280;58763;47.982;11.516;2023-03-15T07:19:00;94152.44;;;-0.22;84.82
71107;BME280;58763;47.982;11.516;2023-03-15T07:21:26;94156.19;;;-0.29;85.13
71107;BME280;58763;47.982;11.516;2023-03-15T07:23:51;94168.38;;;-0.40;85.58
71107;BME280;58763;47.982;11.516;2023-03-15T07:26:17;94160.91;;;-0.31;85.66
71107;BME280;58763;47.982;11.516;2023-03-15T07:28:42;94163.56;;;-0.31;85.95
71107;BME280;58763;47.982;11.516;2023-03-15T07:31:10;94170.00;;;-0.21;86.18
71107;BME280;58763;47.982;11.516;2023-03-15T07:33:36;94169.97;;;-0.14;85.43
71107;BME280;58763;47.982;11.516;2023-03-15T07:36:03;94176.75;;;0.00;85.22
71107;BME280;58763;47.982;11.516;2023-03-15T07:38:30;94174.72;;;-0.05;84.89
71107;BME280;58763;47.982;11.516;2023-03-15T07:40:56;94167.00;;;-0.06;83.95
71107;BME280;58763;47.982;11.516;2023-03-15T07:43:22;94166.41;;;-0.08;84.40
71107;BME280;58763;47.982;11.516;2023-03-15T07:45:48;94170.91;;;-0.09;83.04
71107;BME280;58763;47.982;11.516;2023-03-15T07:48:14;94170.31;;;-0.11;81.90
71107;BME280;58763;47.982;11.516;2023-03-15T07:50:40;94176.88;;;-0.13;82.50
71107;BME280;58763;47.982;11.516;2023-03-15T07:53:06;94166.84;;;-0.11;82.48
71107;BME280;58763;47.982;11.516;2023-03-15T07:55:33;94169.50;;;-0.11;82.01
71107;BME280;58763;47.982;11.516;2023-03-15T07:57:58;94167.50;;;-0.16;82.54
71107;BME280;58763;47.982;11.516;2023-03-15T08:00:24;94169.56;;;0.00;81.99
71107;BME280;58763;47.982;11.516;2023-03-15T08:02:49;94166.41;;;0.10;81.71
71107;BME280;58763;47.982;11.516;2023-03-15T08:05:15;94173.34;;;0.11;82.45
71107;BME280;58763;47.982;11.516;2023-03-15T08:07:44;94170.28;;;0.26;82.33
71107;BME280;58763;47.982;11.516;2023-03-15T08:10:11;94175.09;;;0.35;83.23
71107;BME280;58763;47.982;11.516;2023-03-15T08:12:36;94166.38;;;0.46;81.84
71107;BME280;58763;47.982;11.516;2023-03-15T08:15:03;94160.91;;;0.41;81.78
71107;BME280;58763;47.982;11.516;2023-03-15T08:17:29;94163.69;;;0.64;81.23
71107;BME280;58763;47.982;11.516;2023-03-15T08:19:54;94169.22;;;0.93;81.21
71107;BME280;58763;47.982;11.516;2023-03-15T08:22:19;94161.25;;;0.93;78.88
71107;BME280;58763;47.982;11.516;2023-03-15T08:24:45;94158.25;;;1.12;78.16
71107;BME280;58763;47.982;11.516;2023-03-15T08:27:10;94160.31;;;1.63;75.07
71107;BME280;58763;47.982;11.516;2023-03-15T08:29:36;94148.97;;;1.79;74.72
71107;BME280;58763;47.982;11.516;2023-03-15T08:32:01;94159.81;;;2.13;73.72
71107;BME280;58763;47.982;11.516;2023-03-15T08:34:27;94154.22;;;2.37;72.71
71107;BME280;58763;47.982;11.516;2023-03-15T08:36:53;94152.81;;;2.35;69.21
71107;BME280;58763;47.982;11.516;2023-03-15T08:39:18;94166.00;;;1.90;69.05
71107;BME280;58763;47.982;11.516;2023-03-15T08:41:44;94169.72;;;2.00;70.73
71107;BME280;58763;47.982;11.516;2023-03-15T08:44:11;94166.09;;;1.95;69.94
71107;BME280;58763;47.982;11.516;2023-03-15T08:46:37;94158.09;;;1.95;70.38
71107;BME280;58763;47.982;11.516;2023-03-15T08:49:02;94156.91;;;2.26;70.02
71107;BME280;58763;47.982;11.516;2023-03-15T08:51:27;94153.00;;;2.17;67.49
71107;BME280;58763;47.982;11.516;2023-03-15T08:53:55;94147.84;;;2.27;68.14
71107;BME280;58763;47.982;11.516;2023-03-15T08:56:21;94158.44;;;2.50;68.00
71107;BME280;58763;47.982;11.516;2023-03-15T08:58:46;94151.97;;;2.46;68.54
71107;BME280;58763;47.982;11.516;2023-03-15T09:01:13;94150.34;;;2.56;69.27
71107;BME280;58763;47.982;11.516;2023-03-15T09:03:39;94149.47;;;2.28;68.24
71107;BME280;58763;47.982;11.516;2023-03-15T09:06:07;94141.22;;;2.29;69.61
71107;BME280;58763;47.982;11.516;2023-03-15T09:08:33;94150.78;;;2.14;69.45
71107;BME280;58763;47.982;11.516;2023-03-15T09:10:59;94145.78;;;2.05;69.91
71107;BME280;58763;47.982;11.516;2023-03-15T09:13:28;94163.31;;;1.90;68.72
71107;BME280;58763;47.982;11.516;2023-03-15T09:15:54;94152.66;;;1.67;69.13
71107;BME280;58763;47.982;11.516;2023-03-15T09:18:20;94160.78;;;1.60;68.68
71107;BME280;58763;47.982;11.516;2023-03-15T09:20:47;94157.38;;;1.30;68.55
71107;BME280;58763;47.982;11.516;2023-03-15T09:23:13;94161.91;;;1.41;68.95
71107;BME280;58763;47.982;11.516;2023-03-15T09:25:38;94167.81;;;1.43;69.75
71107;BME280;58763;47.982;11.516;2023-03-15T09:28:06;94164.03;;;1.62;68.96
71107;BME280;58763;47.982;11.516;2023-03-15T09:30:32;94162.03;;;1.46;68.14
71107;BME280;58763;47.982;11.516;2023-03-15T09:32:58;94165.41;;;1.42;68.35
71107;BME280;58763;47.982;11.516;2023-03-15T09:35:23;94161.22;;;1.34;67.47
71107;BME280;58763;47.982;11.516;2023-03-15T09:37:49;94164.69;;;1.34;69.31
71107;BME280;58763;47.982;11.516;2023-03-15T09:40:29;94162.50;;;1.55;67.18
71107;BME280;58763;47.982;11.516;2023-03-15T09:43:03;94164.97;;;1.91;67.00
71107;BME280;58763;47.982;11.516;2023-03-15T09:48:29;94164.53;;;2.34;65.80
71107;BME280;58763;47.982;11.516;2023-03-15T09:50:59;94168.63;;;2.64;64.84
71107;BME280;58763;47.982;11.516;2023-03-15T09:56:02;94165.13;;;3.20;66.02
71107;BME280;58763;47.982;11.516;2023-03-15T09:58:33;94171.81;;;3.34;63.69
71107;BME280;58763;47.982;11.516;2023-03-15T10:01:09;94167.38;;;3.73;62.16
71107;BME280;58763;47.982;11.516;2023-03-15T10:06:12;94173.22;;;3.70;63.61
71107;BME280;58763;47.982;11.516;2023-03-15T10:08:40;94176.53;;;3.77;64.82
71107;BME280;58763;47.982;11.516;2023-03-15T10:16:49;94191.47;;;3.28;59.86
71107;BME280;58763;47.982;11.516;2023-03-15T10:19:24;94188.91;;;3.33;60.10
71107;BME280;58763;47.982;11.516;2023-03-15T10:22:14;94188.91;;;3.05;59.37
71107;BME280;58763;47.982;11.516;2023-03-15T10:27:50;94197.06;;;2.70;61.81
71107;BME280;58763;47.982;11.516;2023-03-15T10:30:22;94197.13;;;2.36;60.21
71107;BME280;58763;47.982;11.516;2023-03-15T10:32:54;94192.97;;;2.28;59.33
71107;BME280;58763;47.982;11.516;2023-03-15T10:35:21;94182.31;;;2.28;60.02
71107;BME280;58763;47.982;11.516;2023-03-15T10:37:47;94189.31;;;2.57;60.29
71107;BME280;58763;47.982;11.516;2023-03-15T10:40:14;94186.66;;;2.86;61.04
71107;BME280;58763;47.982;11.516;2023-03-15T10:42:46;94189.25;;;3.09;57.69
71107;BME280;58763;47.982;11.516;2023-03-15T10:47:42;94184.63;;;3.66;57.23
71107;BME280;58763;47.982;11.516;2023-03-15T10:50:09;94174.25;;;3.86;57.27
71107;BME280;58763;47.982;11.516;2023-03-15T10:52:44;94173.56;;;4.12;55.42
71107;BME280;58763;47.982;11.516;2023-03-15T10:55:14;94174.06;;;4.47;56.03
71107;BME280;58763;47.982;11.516;2023-03-15T10:57:51;94174.44;;;4.56;57.16
71107;BME280;58763;47.982;11.516;2023-03-15T11:00:30;94175.53;;;4.60;57.66
71107;BME280;58763;47.982;11.516;2023-03-15T11:03:14;94176.09;;;4.83;57.52
71107;BME280;58763;47.982;11.516;2023-03-15T11:05:45;94178.84;;;5.10;56.17
71107;BME280;58763;47.982;11.516;2023-03-15T11:08:19;94171.19;;;5.24;54.95
71107;BME280;58763;47.982;11.516;2023-03-15T11:10:53;94168.16;;;5.15;54.88
71107;BME280;58763;47.982;11.516;2023-03-15T11:13:31;94176.00;;;4.73;53.35
71107;BME280;58763;47.982;11.516;2023-03-15T11:18:36;94167.84;;;4.25;52.86
71107;BME280;58763;47.982;11.516;2023-03-15T11:21:09;94174.66;;;3.94;50.28
71107;BME280;58763;47.982;11.516;2023-03-15T11:23:38;94169.53;;;3.76;51.67
71107;BME280;58763;47.982;11.516;2023-03-15T11:26:05;94174.88;;;3.76;53.38
71107;BME280;58763;47.982;11.516;2023-03-15T11:28:31;94172.47;;;3.75;52.82
71107;BME280;58763;47.982;11.516;2023-03-15T11:30:59;94182.16;;;4.14;51.32
71107;BME280;58763;47.982;11.516;2023-03-15T11:36:06;94165.53;;;4.50;48.05
71107;BME280;58763;47.982;11.516;2023-03-15T11:38:39;94165.69;;;4.44;50.51
71107;BME280;58763;47.982;11.516;2023-03-15T11:41:25;94158.94;;;4.36;51.04
71107;BME280;58763;47.982;11.516;2023-03-15T11:46:29;94167.84;;;4.85;51.69
71107;BME280;58763;47.982;11.516;2023-03-15T11:52:11;94164.34;;;4.63;49.10
71107;BME280;58763;47.982;11.516;2023-03-15T11:54:39;94157.66;;;4.44;48.41
71107;BME280;58763;47.982;11.516;2023-03-15T12:08:52;94136.25;;;4.44;50.20
71107;BME280;58763;47.982;11.516;2023-03-15T12:16:25;94146.44;;;4.25;49.07
71107;BME280;58763;47.982;11.516;2023-03-15T12:18:52;94139.44;;;4.41;50.18
71107;BME280;58763;47.982;11.516;2023-03-15T12:21:21;94110.78;;;4.63;49.48
71107;BME280;58763;47.982;11.516;2023-03-15T12:24:15;94113.19;;;5.13;48.52
71107;BME280;58763;47.982;11.516;2023-03-15T12:26:47;94107.03;;;5.12;49.12
71107;BME280;58763;47.982;11.516;2023-03-15T12:29:23;94107.53;;;4.82;46.34
71107;BME280;58763;47.982;11.516;2023-03-15T12:32:11;94116.75;;;4.70;48.00
71107;BME280;58763;47.982;11.516;2023-03-15T12:34:54;94113.91;;;4.55;47.14
71107;BME280;58763;47.982;11.516;2023-03-15T12:40:47;94108.06;;;4.36;47.65
71107;BME280;58763;47.982;11.516;2023-03-15T12:55:50;94112.50;;;4.74;48.19
71107;BME280;58763;47.982;11.516;2023-03-15T12:58:18;94109.88;;;4.52;49.04
71107;BME280;58763;47.982;11.516;2023-03-15T13:00:45;94121.75;;;4.61;50.03
71107;BME280;58763;47.982;11.516;2023-03-15T13:08:30;94113.09;;;4.76;48.86
71107;BME280;58763;47.982;11.516;2023-03-15T13:19:40;94107.97;;;4.53;49.63
71107;BME280;58763;47.982;11.516;2023-03-15T13:25:01;94118.63;;;4.26;50.16
71107;BME280;58763;47.982;11.516;2023-03-15T13:35:39;94126.22;;;4.56;49.14
71107;BME280;58763;47.982;11.516;2023-03-15T13:38:11;94115.97;;;4.48;48.05
71107;BME280;58763;47.982;11.516;2023-03-15T13:40:46;94127.66;;;4.42;48.01
71107;BME280;58763;47.982;11.516;2023-03-15T13:43:11;94113.66;;;4.56;47.56
71107;BME280;58763;47.982;11.516;2023-03-15T13:45:41;94110.28;;;4.66;49.06
71107;BME280;58763;47.982;11.516;2023-03-15T13:48:07;94126.50;;;4.81;49.95
71107;BME280;58763;47.982;11.516;2023-03-15T13:50:34;94128.22;;;4.65;48.09
71107;BME280;58763;47.982;11.516;2023-03-15T13:53:00;94134.94;;;4.68;48.99
71107;BME280;58763;47.982;11.516;2023-03-15T13:55:30;94131.16;;;4.64;49.33
71107;BME280;58763;47.982;11.516;2023-03-15T13:57:58;94126.56;;;4.59;49.17
71107;BME280;58763;47.982;11.516;2023-03-15T14:00:29;94131.91;;;4.38;48.23
71107;BME280;58763;47.982;11.516;2023-03-15T14:03:04;94130.53;;;4.35;48.12
71107;BME280;58763;47.982;11.516;2023-03-15T14:05:33;94130.47;;;4.30;49.11
71107;BME280;58763;47.982;11.516;2023-03-15T14:08:17;94123.72;;;4.28;49.02
71107;BME280;58763;47.982;11.516;2023-03-15T14:11:03;94143.50;;;4.05;50.23
71107;BME280;58763;47.982;11.516;2023-03-15T14:13:51;94135.00;;;4.08;51.55
71107;BME280;58763;47.982;11.516;2023-03-15T14:16:31;94127.13;;;4.01;50.79
71107;BME280;58763;47.982;11.516;2023-03-15T14:19:16;94143.13;;;3.96;51.23
71107;BME280;58763;47.982;11.516;2023-03-15T14:21:44;94136.94;;;3.96;50.45
71107;BME280;58763;47.982;11.516;2023-03-15T14:24:37;94135.41;;;4.00;51.53
71107;BME280;58763;47.982;11.516;2023-03-15T14:27:13;94145.78;;;3.96;49.50
71107;BME280;58763;47.982;11.516;2023-03-15T14:29:48;94145.91;;;3.85;51.98
71107;BME280;58763;47.982;11.516;2023-03-15T14:32:33;94141.59;;;3.67;55.38
71107;BME280;58763;47.982;11.516;2023-03-15T14:37:44;94140.78;;;3.83;52.38